sensor_id;sensor_type;location;lat;lon;timestamp;P1;durP1;ratioP1;P2;durP2;ratioP2
70543;SDS011;58097;48.364;-1.224;2023-04-25T00:01:02;14.27;;;3.90;;
70543;SDS011;58097;48.364;-1.224;2023-04-25T00:03:29;10.50;;;3.17;;
70543;SDS011;58097;48.364;-1.224;2023-04-25T00:05:56;9.05;;;4.45;;
70543;SDS011;58097;48.364;-1.224;2023-04-25T00:08:22;12.57;;;3.90;;
70543;SDS011;58097;48.364;-1.224;2023-04-25T00:10:48;11.60;;;3.80;;
70543;SDS011;58097;48.364;-1.224;2023-04-25T00:13:14;9.60;;;3.28;;
70543;SDS011;58097;48.364;-1.224;2023-04-25T00:15:39;15.77;;;3.20;;
70543;SDS011;58097;48.364;-1.224;2023-04-25T00:18:06;9.77;;;3.45;;
70543;SDS011;58097;48.364;-1.224;2023-04-25T00:20:32;7.13;;;2.72;;
70543;SDS011;58097;48.364;-1.224;2023-04-25T00:22:57;5.65;;;3.35;;
70543;SDS011;58097;48.364;-1.224;2023-04-25T00:25:23;12.60;;;3.58;;
70543;SDS011;58097;48.364;-1.224;2023-04-25T00:27:48;11.75;;;3.47;;
70543;SDS011;58097;48.364;-1.224;2023-04-25T00:30:14;8.95;;;3.15;;
70543;SDS011;58097;48.364;-1.224;2023-04-25T00:32:39;7.13;;;3.22;;
70543;SDS011;58097;48.364;-1.224;2023-04-25T00:35:05;7.28;;;3.45;;
70543;SDS011;58097;48.364;-1.224;2023-04-25T00:37:31;5.55;;;3.30;;
70543;SDS011;58097;48.364;-1.224;2023-04-25T00:39:57;10.98;;;3.38;;
70543;SDS011;58097;48.364;-1.224;2023-04-25T00:42:23;8.43;;;3.55;;
70543;SDS011;58097;48.364;-1.224;2023-04-25T00:44:50;12.73;;;4.38;;
70543;SDS011;58097;48.364;-1.224;2023-04-25T00:47:17;11.10;;;3.75;;
70543;SDS011;58097;48.364;-1.224;2023-04-25T00:49:42;6.20;;;3.13;;
70543;SDS011;58097;48.364;-1.224;2023-04-25T00:52:08;10.57;;;3.00;;
70543;SDS011;58097;48.364;-1.224;2023-04-25T00:54:33;5.78;;;3.22;;
70543;SDS011;58097;48.364;-1.224;2023-04-25T00:56:58;8.63;;;3.25;;
70543;SDS011;58097;48.364;-1.224;2023-04-25T00:59:25;6.22;;;3.10;;
70543;SDS011;58097;48.364;-1.224;2023-04-25T01:01:52;11.30;;;3.53;;
70543;SDS011;58097;48.364;-1.224;2023-04-25T01:04:17;7.53;;;3.95;;
70543;SDS011;58097;48.364;-1.224;2023-04-25T01:06:43;11.07;;;3.10;;
70543;SDS011;58097;48.364;-1.224;2023-04-25T01:09:08;8.60;;;3.20;;
70543;SDS011;58097;48.364;-1.224;2023-04-25T01:11:34;8.30;;;3.25;;
70543;SDS011;58097;48.364;-1.224;2023-04-25T01:14:00;10.15;;;4.07;;
70543;SDS011;58097;48.364;-1.224;2023-04-25T01:16:26;6.65;;;3.05;;
70543;SDS011;58097;48.364;-1.224;2023-04-25T01:18:52;8.00;;;3.78;;
70543;SDS011;58097;48.364;-1.224;2023-04-25T01:21:19;4.78;;;3.53;;
70543;SDS011;58097;48.364;-1.224;2023-04-25T01:23:45;7.43;;;3.05;;
70543;SDS011;58097;48.364;-1.224;2023-04-25T01:26:11;6.57;;;3.45;;
70543;SDS011;58097;48.364;-1.224;2023-04-25T01:28:38;12.75;;;3.58;;
70543;SDS011;58097;48.364;-1.224;2023-04-25T01:31:07;9.65;;;4.63;;
70543;SDS011;58097;48.364;-1.224;2023-04-25T01:33:32;6.00;;;2.92;;
70543;SDS011;58097;48.364;-1.224;2023-04-25T01:35:58;4.82;;;3.42;;
70543;SDS011;58097;48.364;-1.224;2023-04-25T01:38:23;13.40;;;4.03;;
70543;SDS011;58097;48.364;-1.224;2023-04-25T01:40:49;11.63;;;3.92;;
70543;SDS011;58097;48.364;-1.224;2023-04-25T01:43:16;9.60;;;3.45;;
70543;SDS011;58097;48.364;-1.224;2023-04-25T01:45:42;10.38;;;3.58;;
70543;SDS011;58097;48.364;-1.224;2023-04-25T01:48:08;12.57;;;4.07;;
70543;SDS011;58097;48.364;-1.224;2023-04-25T01:50:38;8.18;;;4.10;;
70543;SDS011;58097;48.364;-1.224;2023-04-25T01:53:04;8.52;;;3.33;;
70543;SDS011;58097;48.364;-1.224;2023-04-25T01:55:30;14.68;;;4.35;;
70543;SDS011;58097;48.364;-1.224;2023-04-25T01:57:55;10.60;;;3.30;;
70543;SDS011;58097;48.364;-1.224;2023-04-25T02:00:21;10.90;;;3.17;;
70543;SDS011;58097;48.364;-1.224;2023-04-25T02:02:46;7.20;;;3.63;;
70543;SDS011;58097;48.364;-1.224;2023-04-25T02:05:12;8.48;;;4.05;;
70543;SDS011;58097;48.364;-1.224;2023-04-25T02:07:37;12.95;;;4.32;;
70543;SDS011;58097;48.364;-1.224;2023-04-25T02:10:03;9.43;;;4.00;;
70543;SDS011;58097;48.364;-1.224;2023-04-25T02:12:29;7.47;;;3.45;;
70543;SDS011;58097;48.364;-1.224;2023-04-25T02:14:54;13.27;;;4.30;;
70543;SDS011;58097;48.364;-1.224;2023-04-25T02:17:19;12.73;;;3.80;;
70543;SDS011;58097;48.364;-1.224;2023-04-25T02:19:46;9.43;;;3.50;;
70543;SDS011;58097;48.364;-1.224;2023-04-25T02:22:12;5.63;;;3.03;;
70543;SDS011;58097;48.364;-1.224;2023-04-25T02:24:37;10.52;;;3.15;;
70543;SDS011;58097;48.364;-1.224;2023-04-25T02:27:03;9.98;;;3.25;;
70543;SDS011;58097;48.364;-1.224;2023-04-25T02:29:29;7.50;;;3.42;;
70543;SDS011;58097;48.364;-1.224;2023-04-25T02:31:54;11.48;;;3.80;;
70543;SDS011;58097;48.364;-1.224;2023-04-25T02:34:20;10.90;;;3.28;;
70543;SDS011;58097;48.364;-1.224;2023-04-25T02:36:45;9.00;;;3.22;;
70543;SDS011;58097;48.364;-1.224;2023-04-25T02:39:11;10.75;;;3.95;;
70543;SDS011;58097;48.364;-1.224;2023-04-25T02:41:36;9.70;;;3.63;;
70543;SDS011;58097;48.364;-1.224;2023-04-25T02:44:01;9.98;;;3.22;;
70543;SDS011;58097;48.364;-1.224;2023-04-25T02:46:27;14.65;;;3.65;;
70543;SDS011;58097;48.364;-1.224;2023-04-25T02:48:52;10.80;;;3.80;;
70543;SDS011;58097;48.364;-1.224;2023-04-25T02:51:17;12.18;;;3.92;;
70543;SDS011;58097;48.364;-1.224;2023-04-25T02:53:43;7.40;;;3.08;;
70543;SDS011;58097;48.364;-1.224;2023-04-25T02:56:09;6.85;;;3.65;;
70543;SDS011;58097;48.364;-1.224;2023-04-25T02:58:34;6.65;;;3.40;;
70543;SDS011;58097;48.364;-1.224;2023-04-25T03:01:00;14.93;;;4.18;;
70543;SDS011;58097;48.364;-1.224;2023-04-25T03:03:25;8.57;;;3.55;;
70543;SDS011;58097;48.364;-1.224;2023-04-25T03:05:51;6.22;;;3.05;;
70543;SDS011;58097;48.364;-1.224;2023-04-25T03:08:17;11.73;;;3.03;;
70543;SDS011;58097;48.364;-1.224;2023-04-25T03:10:43;10.35;;;3.20;;
70543;SDS011;58097;48.364;-1.224;2023-04-25T03:13:09;17.65;;;3.80;;
70543;SDS011;58097;48.364;-1.224;2023-04-25T03:15:34;14.82;;;4.15;;
70543;SDS011;58097;48.364;-1.224;2023-04-25T03:18:00;11.40;;;4.18;;
70543;SDS011;58097;48.364;-1.224;2023-04-25T03:20:26;10.98;;;3.80;;
70543;SDS011;58097;48.364;-1.224;2023-04-25T03:22:51;10.68;;;3.83;;
70543;SDS011;58097;48.364;-1.224;2023-04-25T03:25:17;5.35;;;2.97;;
70543;SDS011;58097;48.364;-1.224;2023-04-25T03:27:43;11.63;;;3.90;;
70543;SDS011;58097;48.364;-1.224;2023-04-25T03:30:08;11.93;;;3.83;;
70543;SDS011;58097;48.364;-1.224;2023-04-25T03:32:34;13.30;;;4.85;;
70543;SDS011;58097;48.364;-1.224;2023-04-25T03:34:59;8.65;;;4.38;;
70543;SDS011;58097;48.364;-1.224;2023-04-25T03:37:25;12.38;;;4.00;;
70543;SDS011;58097;48.364;-1.224;2023-04-25T03:39:50;9.30;;;3.75;;
70543;SDS011;58097;48.364;-1.224;2023-04-25T03:42:16;7.72;;;3.90;;
70543;SDS011;58097;48.364;-1.224;2023-04-25T03:44:41;7.93;;;3.60;;
70543;SDS011;58097;48.364;-1.224;2023-04-25T03:47:07;14.57;;;4.68;;
70543;SDS011;58097;48.364;-1.224;2023-04-25T03:49:34;13.60;;;3.55;;
70543;SDS011;58097;48.364;-1.224;2023-04-25T03:52:00;7.72;;;4.25;;
70543;SDS011;58097;48.364;-1.224;2023-04-25T03:54:26;11.00;;;4.00;;
70543;SDS011;58097;48.364;-1.224;2023-04-25T03:56:51;7.97;;;3.63;;
70543;SDS011;58097;48.364;-1.224;2023-04-25T03:59:16;10.75;;;4.00;;
70543;SDS011;58097;48.364;-1.224;2023-04-25T04:01:42;10.98;;;3.72;;
70543;SDS011;58097;48.364;-1.224;2023-04-25T04:04:07;12.57;;;4.45;;
70543;SDS011;58097;48.364;-1.224;2023-04-25T04:06:32;8.45;;;3.92;;
70543;SDS011;58097;48.364;-1.224;2023-04-25T04:08:58;6.03;;;3.85;;
70543;SDS011;58097;48.364;-1.224;2023-04-25T04:11:24;9.27;;;3.80;;
70543;SDS011;58097;48.364;-1.224;2023-04-25T04:13:49;9.52;;;4.32;;
70543;SDS011;58097;48.364;-1.224;2023-04-25T04:16:15;9.13;;;3.47;;
70543;SDS011;58097;48.364;-1.224;2023-04-25T04:18:40;7.78;;;3.33;;
70543;SDS011;58097;48.364;-1.224;2023-04-25T04:21:05;10.85;;;3.88;;
70543;SDS011;58097;48.364;-1.224;2023-04-25T04:23:31;5.68;;;2.28;;
70543;SDS011;58097;48.364;-1.224;2023-04-25T04:25:56;5.95;;;2.95;;
70543;SDS011;58097;48.364;-1.224;2023-04-25T04:28:22;12.90;;;3.50;;
70543;SDS011;58097;48.364;-1.224;2023-04-25T04:30:47;8.48;;;3.55;;
70543;SDS011;58097;48.364;-1.224;2023-04-25T04:33:13;7.70;;;3.58;;
70543;SDS011;58097;48.364;-1.224;2023-04-25T04:35:40;7.85;;;3.35;;
70543;SDS011;58097;48.364;-1.224;2023-04-25T04:38:06;12.25;;;4.38;;
70543;SDS011;58097;48.364;-1.224;2023-04-25T04:40:32;9.82;;;3.42;;
70543;SDS011;58097;48.364;-1.224;2023-04-25T04:42:57;6.80;;;3.50;;
70543;SDS011;58097;48.364;-1.224;2023-04-25T04:45:23;9.43;;;3.80;;
70543;SDS011;58097;48.364;-1.224;2023-04-25T04:47:48;6.05;;;3.38;;
70543;SDS011;58097;48.364;-1.224;2023-04-25T04:50:15;5.53;;;3.70;;
70543;SDS011;58097;48.364;-1.224;2023-04-25T04:52:41;4.65;;;3.10;;
70543;SDS011;58097;48.364;-1.224;2023-04-25T04:55:07;4.72;;;3.10;;
70543;SDS011;58097;48.364;-1.224;2023-04-25T04:57:33;5.28;;;3.22;;
70543;SDS011;58097;48.364;-1.224;2023-04-25T04:59:59;8.70;;;3.05;;
70543;SDS011;58097;48.364;-1.224;2023-04-25T05:02:25;4.82;;;2.97;;
70543;SDS011;58097;48.364;-1.224;2023-04-25T05:04:51;10.02;;;3.63;;
70543;SDS011;58097;48.364;-1.224;2023-04-25T05:07:17;7.30;;;2.88;;
70543;SDS011;58097;48.364;-1.224;2023-04-25T05:09:43;8.20;;;4.18;;
70543;SDS011;58097;48.364;-1.224;2023-04-25T05:12:08;11.25;;;4.18;;
70543;SDS011;58097;48.364;-1.224;2023-04-25T05:14:34;8.60;;;4.80;;
70543;SDS011;58097;48.364;-1.224;2023-04-25T05:16:59;7.25;;;4.10;;
70543;SDS011;58097;48.364;-1.224;2023-04-25T05:19:25;9.57;;;4.72;;
70543;SDS011;58097;48.364;-1.224;2023-04-25T05:21:51;10.05;;;4.28;;
70543;SDS011;58097;48.364;-1.224;2023-04-25T05:24:16;10.30;;;4.18;;
70543;SDS011;58097;48.364;-1.224;2023-04-25T05:26:42;5.47;;;3.90;;
70543;SDS011;58097;48.364;-1.224;2023-04-25T05:29:07;5.03;;;3.38;;
70543;SDS011;58097;48.364;-1.224;2023-04-25T05:31:32;7.72;;;4.65;;
70543;SDS011;58097;48.364;-1.224;2023-04-25T05:33:58;8.60;;;3.38;;
70543;SDS011;58097;48.364;-1.224;2023-04-25T05:36:23;9.95;;;4.22;;
70543;SDS011;58097;48.364;-1.224;2023-04-25T05:38:49;7.25;;;3.90;;
70543;SDS011;58097;48.364;-1.224;2023-04-25T05:41:14;5.18;;;3.33;;
70543;SDS011;58097;48.364;-1.224;2023-04-25T05:43:40;5.80;;;3.67;;
70543;SDS011;58097;48.364;-1.224;2023-04-25T05:46:10;8.63;;;4.53;;
70543;SDS011;58097;48.364;-1.224;2023-04-25T05:48:36;4.55;;;3.60;;
70543;SDS011;58097;48.364;-1.224;2023-04-25T05:51:01;6.25;;;3.33;;
70543;SDS011;58097;48.364;-1.224;2023-04-25T05:53:26;9.05;;;3.70;;
70543;SDS011;58097;48.364;-1.224;2023-04-25T05:55:52;4.75;;;3.70;;
70543;SDS011;58097;48.364;-1.224;2023-04-25T05:58:17;6.13;;;3.75;;
70543;SDS011;58097;48.364;-1.224;2023-04-25T06:00:42;6.43;;;3.50;;
70543;SDS011;58097;48.364;-1.224;2023-04-25T06:03:08;8.63;;;3.65;;
70543;SDS011;58097;48.364;-1.224;2023-04-25T06:05:34;4.15;;;3.53;;
70543;SDS011;58097;48.364;-1.224;2023-04-25T06:08:00;5.30;;;3.33;;
70543;SDS011;58097;48.364;-1.224;2023-04-25T06:10:26;6.70;;;3.45;;
70543;SDS011;58097;48.364;-1.224;2023-04-25T06:12:51;4.45;;;3.28;;
70543;SDS011;58097;48.364;-1.224;2023-04-25T06:15:17;6.88;;;3.33;;
70543;SDS011;58097;48.364;-1.224;2023-04-25T06:17:42;10.82;;;4.10;;
70543;SDS011;58097;48.364;-1.224;2023-04-25T06:20:08;5.18;;;3.28;;
70543;SDS011;58097;48.364;-1.224;2023-04-25T06:22:33;6.55;;;3.92;;
70543;SDS011;58097;48.364;-1.224;2023-04-25T06:24:59;5.57;;;3.92;;
70543;SDS011;58097;48.364;-1.224;2023-04-25T06:27:25;6.72;;;4.28;;
70543;SDS011;58097;48.364;-1.224;2023-04-25T06:29:50;8.90;;;4.97;;
70543;SDS011;58097;48.364;-1.224;2023-04-25T06:32:16;8.80;;;5.07;;
70543;SDS011;58097;48.364;-1.224;2023-04-25T06:34:43;8.93;;;4.50;;
70543;SDS011;58097;48.364;-1.224;2023-04-25T06:37:08;17.95;;;6.43;;
70543;SDS011;58097;48.364;-1.224;2023-04-25T06:39:33;14.93;;;6.00;;
70543;SDS011;58097;48.364;-1.224;2023-04-25T06:41:58;8.15;;;5.50;;
70543;SDS011;58097;48.364;-1.224;2023-04-25T06:44:24;12.18;;;5.82;;
70543;SDS011;58097;48.364;-1.224;2023-04-25T06:46:51;9.57;;;5.68;;
70543;SDS011;58097;48.364;-1.224;2023-04-25T06:49:16;12.63;;;6.35;;
70543;SDS011;58097;48.364;-1.224;2023-04-25T06:51:42;13.35;;;6.28;;
70543;SDS011;58097;48.364;-1.224;2023-04-25T06:54:07;10.77;;;5.47;;
70543;SDS011;58097;48.364;-1.224;2023-04-25T06:56:32;14.65;;;6.40;;
70543;SDS011;58097;48.364;-1.224;2023-04-25T06:58:58;11.07;;;6.30;;
70543;SDS011;58097;48.364;-1.224;2023-04-25T07:01:25;13.25;;;6.45;;
70543;SDS011;58097;48.364;-1.224;2023-04-25T07:03:50;10.63;;;5.75;;
70543;SDS011;58097;48.364;-1.224;2023-04-25T07:06:16;7.68;;;5.38;;
70543;SDS011;58097;48.364;-1.224;2023-04-25T07:08:41;7.00;;;5.20;;
70543;SDS011;58097;48.364;-1.224;2023-04-25T07:11:06;13.43;;;5.13;;
70543;SDS011;58097;48.364;-1.224;2023-04-25T07:13:32;7.72;;;5.68;;
70543;SDS011;58097;48.364;-1.224;2023-04-25T07:15:57;7.90;;;5.95;;
70543;SDS011;58097;48.364;-1.224;2023-04-25T07:18:23;10.35;;;5.53;;
70543;SDS011;58097;48.364;-1.224;2023-04-25T07:20:48;8.55;;;5.63;;
70543;SDS011;58097;48.364;-1.224;2023-04-25T07:23:13;6.35;;;5.07;;
70543;SDS011;58097;48.364;-1.224;2023-04-25T07:25:39;10.75;;;5.50;;
70543;SDS011;58097;48.364;-1.224;2023-04-25T07:28:04;8.05;;;5.50;;
70543;SDS011;58097;48.364;-1.224;2023-04-25T07:30:30;7.05;;;4.93;;
70543;SDS011;58097;48.364;-1.224;2023-04-25T07:32:55;8.20;;;5.30;;
70543;SDS011;58097;48.364;-1.224;2023-04-25T07:35:21;10.55;;;5.97;;
70543;SDS011;58097;48.364;-1.224;2023-04-25T07:37:46;7.40;;;4.82;;
70543;SDS011;58097;48.364;-1.224;2023-04-25T07:40:11;8.88;;;4.95;;
70543;SDS011;58097;48.364;-1.224;2023-04-25T07:42:37;8.30;;;4.47;;
70543;SDS011;58097;48.364;-1.224;2023-04-25T07:45:02;7.93;;;4.90;;
70543;SDS011;58097;48.364;-1.224;2023-04-25T07:47:28;6.40;;;4.53;;
70543;SDS011;58097;48.364;-1.224;2023-04-25T07:49:53;9.15;;;4.85;;
70543;SDS011;58097;48.364;-1.224;2023-04-25T07:52:19;12.10;;;5.38;;
70543;SDS011;58097;48.364;-1.224;2023-04-25T07:54:44;11.38;;;5.20;;
70543;SDS011;58097;48.364;-1.224;2023-04-25T07:57:10;7.40;;;5.80;;
70543;SDS011;58097;48.364;-1.224;2023-04-25T07:59:35;9.27;;;5.97;;
70543;SDS011;58097;48.364;-1.224;2023-04-25T08:02:01;11.02;;;4.80;;
70543;SDS011;58097;48.364;-1.224;2023-04-25T08:04:27;7.38;;;5.18;;
70543;SDS011;58097;48.364;-1.224;2023-04-25T08:06:52;10.13;;;5.45;;
70543;SDS011;58097;48.364;-1.224;2023-04-25T08:09:18;9.63;;;6.38;;
70543;SDS011;58097;48.364;-1.224;2023-04-25T08:11:44;12.40;;;5.80;;
70543;SDS011;58097;48.364;-1.224;2023-04-25T08:14:10;10.00;;;4.85;;
70543;SDS011;58097;48.364;-1.224;2023-04-25T08:16:36;7.72;;;4.60;;
70543;SDS011;58097;48.364;-1.224;2023-04-25T08:19:01;9.73;;;5.28;;
70543;SDS011;58097;48.364;-1.224;2023-04-25T08:21:27;8.20;;;4.80;;
70543;SDS011;58097;48.364;-1.224;2023-04-25T08:23:52;10.48;;;4.95;;
70543;SDS011;58097;48.364;-1.224;2023-04-25T08:26:18;6.15;;;4.18;;
70543;SDS011;58097;48.364;-1.224;2023-04-25T08:28:43;7.45;;;3.88;;
70543;SDS011;58097;48.364;-1.224;2023-04-25T08:31:08;8.98;;;4.15;;
70543;SDS011;58097;48.364;-1.224;2023-04-25T08:33:34;6.68;;;4.05;;
70543;SDS011;58097;48.364;-1.224;2023-04-25T08:35:59;7.43;;;4.20;;
70543;SDS011;58097;48.364;-1.224;2023-04-25T08:38:24;6.38;;;4.43;;
70543;SDS011;58097;48.364;-1.224;2023-04-25T08:40:50;6.95;;;3.70;;
70543;SDS011;58097;48.364;-1.224;2023-04-25T08:43:19;11.43;;;3.97;;
70543;SDS011;58097;48.364;-1.224;2023-04-25T08:45:45;8.85;;;3.30;;
70543;SDS011;58097;48.364;-1.224;2023-04-25T08:48:12;10.25;;;3.47;;
70543;SDS011;58097;48.364;-1.224;2023-04-25T08:50:39;8.25;;;3.28;;
70543;SDS011;58097;48.364;-1.224;2023-04-25T08:53:09;7.38;;;3.58;;
70543;SDS011;58097;48.364;-1.224;2023-04-25T08:55:41;4.75;;;2.90;;
70543;SDS011;58097;48.364;-1.224;2023-04-25T08:58:07;3.65;;;2.65;;
70543;SDS011;58097;48.364;-1.224;2023-04-25T09:00:35;5.75;;;3.40;;
70543;SDS011;58097;48.364;-1.224;2023-04-25T09:03:00;5.03;;;3.25;;
70543;SDS011;58097;48.364;-1.224;2023-04-25T09:05:26;3.92;;;2.70;;
70543;SDS011;58097;48.364;-1.224;2023-04-25T09:07:53;10.00;;;3.30;;
70543;SDS011;58097;48.364;-1.224;2023-04-25T09:10:19;7.40;;;3.83;;
70543;SDS011;58097;48.364;-1.224;2023-04-25T09:12:44;11.90;;;4.35;;
70543;SDS011;58097;48.364;-1.224;2023-04-25T09:15:10;7.43;;;4.45;;
70543;SDS011;58097;48.364;-1.224;2023-04-25T09:17:37;6.32;;;3.78;;
70543;SDS011;58097;48.364;-1.224;2023-04-25T09:20:09;9.88;;;3.28;;
70543;SDS011;58097;48.364;-1.224;2023-04-25T09:22:37;6.97;;;3.42;;
70543;SDS011;58097;48.364;-1.224;2023-04-25T09:25:11;8.40;;;3.92;;
70543;SDS011;58097;48.364;-1.224;2023-04-25T09:27:49;6.10;;;2.92;;
70543;SDS011;58097;48.364;-1.224;2023-04-25T09:30:16;4.80;;;2.45;;
70543;SDS011;58097;48.364;-1.224;2023-04-25T09:32:43;7.47;;;3.22;;
70543;SDS011;58097;48.364;-1.224;2023-04-25T09:35:09;8.70;;;3.20;;
70543;SDS011;58097;48.364;-1.224;2023-04-25T09:37:34;3.53;;;2.70;;
70543;SDS011;58097;48.364;-1.224;2023-04-25T09:40:00;5.63;;;3.20;;
70543;SDS011;58097;48.364;-1.224;2023-04-25T09:42:30;4.47;;;2.80;;
70543;SDS011;58097;48.364;-1.224;2023-04-25T09:44:57;4.35;;;2.67;;
70543;SDS011;58097;48.364;-1.224;2023-04-25T09:47:23;3.03;;;2.72;;
70543;SDS011;58097;48.364;-1.224;2023-04-25T09:49:50;6.15;;;3.45;;
70543;SDS011;58097;48.364;-1.224;2023-04-25T09:52:17;6.30;;;2.88;;
70543;SDS011;58097;48.364;-1.224;2023-04-25T09:54:44;9.48;;;3.97;;
70543;SDS011;58097;48.364;-1.224;2023-04-25T09:57:11;7.13;;;3.47;;
70543;SDS011;58097;48.364;-1.224;2023-04-25T09:59:39;4.18;;;2.85;;
70543;SDS011;58097;48.364;-1.224;2023-04-25T10:02:09;5.88;;;3.47;;
70543;SDS011;58097;48.364;-1.224;2023-04-25T10:04:35;7.68;;;4.07;;
70543;SDS011;58097;48.364;-1.224;2023-04-25T10:07:06;8.27;;;4.28;;
70543;SDS011;58097;48.364;-1.224;2023-04-25T10:09:32;11.15;;;3.92;;
70543;SDS011;58097;48.364;-1.224;2023-04-25T10:12:01;7.35;;;3.90;;
70543;SDS011;58097;48.364;-1.224;2023-04-25T10:14:29;5.82;;;3.60;;
70543;SDS011;58097;48.364;-1.224;2023-04-25T10:16:55;6.90;;;2.95;;
70543;SDS011;58097;48.364;-1.224;2023-04-25T10:19:22;6.93;;;3.63;;
70543;SDS011;58097;48.364;-1.224;2023-04-25T10:21:51;4.70;;;3.03;;
70543;SDS011;58097;48.364;-1.224;2023-04-25T10:26:45;5.63;;;2.60;;
70543;SDS011;58097;48.364;-1.224;2023-04-25T10:29:11;4.78;;;2.75;;
70543;SDS011;58097;48.364;-1.224;2023-04-25T10:31:44;4.43;;;2.95;;
70543;SDS011;58097;48.364;-1.224;2023-04-25T10:34:11;4.90;;;3.40;;
70543;SDS011;58097;48.364;-1.224;2023-04-25T10:36:36;6.55;;;2.47;;
70543;SDS011;58097;48.364;-1.224;2023-04-25T10:39:05;4.60;;;2.88;;
70543;SDS011;58097;48.364;-1.224;2023-04-25T10:44:20;10.07;;;3.67;;
70543;SDS011;58097;48.364;-1.224;2023-04-25T10:46:46;6.82;;;2.42;;
70543;SDS011;58097;48.364;-1.224;2023-04-25T10:49:27;6.88;;;2.72;;
70543;SDS011;58097;48.364;-1.224;2023-04-25T10:54:51;6.45;;;3.17;;
70543;SDS011;58097;48.364;-1.224;2023-04-25T11:00:15;6.90;;;2.78;;
70543;SDS011;58097;48.364;-1.224;2023-04-25T11:02:48;8.30;;;3.60;;
70543;SDS011;58097;48.364;-1.224;2023-04-25T11:05:31;7.18;;;3.10;;
70543;SDS011;58097;48.364;-1.224;2023-04-25T11:08:00;4.28;;;2.92;;
70543;SDS011;58097;48.364;-1.224;2023-04-25T11:10:28;3.03;;;2.60;;
70543;SDS011;58097;48.364;-1.224;2023-04-25T11:12:56;2.30;;;2.10;;
70543;SDS011;58097;48.364;-1.224;2023-04-25T11:15:25;4.93;;;3.28;;
70543;SDS011;58097;48.364;-1.224;2023-04-25T11:17:51;5.55;;;2.28;;
70543;SDS011;58097;48.364;-1.224;2023-04-25T11:20:17;5.65;;;3.30;;
70543;SDS011;58097;48.364;-1.224;2023-04-25T11:22:44;4.78;;;2.95;;
70543;SDS011;58097;48.364;-1.224;2023-04-25T11:25:11;6.30;;;2.58;;
70543;SDS011;58097;48.364;-1.224;2023-04-25T11:27:38;4.53;;;2.90;;
70543;SDS011;58097;48.364;-1.224;2023-04-25T11:30:15;7.53;;;2.70;;
70543;SDS011;58097;48.364;-1.224;2023-04-25T11:32:41;6.60;;;2.50;;
70543;SDS011;58097;48.364;-1.224;2023-04-25T11:35:08;5.70;;;2.60;;
70543;SDS011;58097;48.364;-1.224;2023-04-25T11:37:37;5.95;;;2.85;;
70543;SDS011;58097;48.364;-1.224;2023-04-25T11:40:04;7.82;;;3.13;;
70543;SDS011;58097;48.364;-1.224;2023-04-25T11:42:31;5.35;;;2.97;;
70543;SDS011;58097;48.364;-1.224;2023-04-25T11:44:58;2.97;;;2.47;;
70543;SDS011;58097;48.364;-1.224;2023-04-25T11:47:28;4.50;;;3.28;;
70543;SDS011;58097;48.364;-1.224;2023-04-25T11:49:59;6.00;;;3.10;;
70543;SDS011;58097;48.364;-1.224;2023-04-25T11:52:38;9.35;;;2.95;;
70543;SDS011;58097;48.364;-1.224;2023-04-25T11:55:14;5.18;;;3.05;;
70543;SDS011;58097;48.364;-1.224;2023-04-25T11:57:44;9.15;;;2.88;;
70543;SDS011;58097;48.364;-1.224;2023-04-25T12:02:40;8.25;;;3.30;;
70543;SDS011;58097;48.364;-1.224;2023-04-25T12:05:07;8.43;;;2.88;;
70543;SDS011;58097;48.364;-1.224;2023-04-25T12:07:33;7.65;;;2.80;;
70543;SDS011;58097;48.364;-1.224;2023-04-25T12:09:59;5.90;;;3.40;;
70543;SDS011;58097;48.364;-1.224;2023-04-25T12:12:35;3.88;;;3.33;;
70543;SDS011;58097;48.364;-1.224;2023-04-25T12:15:08;9.20;;;3.97;;
70543;SDS011;58097;48.364;-1.224;2023-04-25T12:17:47;5.25;;;3.15;;
70543;SDS011;58097;48.364;-1.224;2023-04-25T12:20:17;5.00;;;3.33;;
70543;SDS011;58097;48.364;-1.224;2023-04-25T12:22:48;6.82;;;3.10;;
70543;SDS011;58097;48.364;-1.224;2023-04-25T12:28:17;8.55;;;3.33;;
70543;SDS011;58097;48.364;-1.224;2023-04-25T12:30:52;7.40;;;2.95;;
70543;SDS011;58097;48.364;-1.224;2023-04-25T12:33:33;9.60;;;3.25;;
70543;SDS011;58097;48.364;-1.224;2023-04-25T12:36:00;3.75;;;2.47;;
70543;SDS011;58097;48.364;-1.224;2023-04-25T12:38:29;9.65;;;3.00;;
70543;SDS011;58097;48.364;-1.224;2023-04-25T12:40:56;5.85;;;2.92;;
70543;SDS011;58097;48.364;-1.224;2023-04-25T12:43:23;3.78;;;2.97;;
70543;SDS011;58097;48.364;-1.224;2023-04-25T12:45:49;4.88;;;2.88;;
70543;SDS011;58097;48.364;-1.224;2023-04-25T12:48:16;7.93;;;3.10;;
70543;SDS011;58097;48.364;-1.224;2023-04-25T12:50:41;5.60;;;3.05;;
70543;SDS011;58097;48.364;-1.224;2023-04-25T12:53:07;4.30;;;2.88;;
70543;SDS011;58097;48.364;-1.224;2023-04-25T12:55:32;3.60;;;2.88;;
70543;SDS011;58097;48.364;-1.224;2023-04-25T12:57:58;11.18;;;3.80;;
70543;SDS011;58097;48.364;-1.224;2023-04-25T13:00:23;6.45;;;3.40;;
70543;SDS011;58097;48.364;-1.224;2023-04-25T13:02:49;4.15;;;2.92;;
70543;SDS011;58097;48.364;-1.224;2023-04-25T13:05:15;3.42;;;2.72;;
70543;SDS011;58097;48.364;-1.224;2023-04-25T13:07:40;4.20;;;2.55;;
70543;SDS011;58097;48.364;-1.224;2023-04-25T13:10:06;3.50;;;2.83;;
70543;SDS011;58097;48.364;-1.224;2023-04-25T13:12:32;3.20;;;2.67;;
70543;SDS011;58097;48.364;-1.224;2023-04-25T13:14:57;3.60;;;2.15;;
70543;SDS011;58097;48.364;-1.224;2023-04-25T13:17:23;3.83;;;2.80;;
70543;SDS011;58097;48.364;-1.224;2023-04-25T13:19:48;6.07;;;2.95;;
70543;SDS011;58097;48.364;-1.224;2023-04-25T13:22:13;5.85;;;3.03;;
70543;SDS011;58097;48.364;-1.224;2023-04-25T13:24:41;8.75;;;3.10;;
70543;SDS011;58097;48.364;-1.224;2023-04-25T13:27:07;4.68;;;2.83;;
70543;SDS011;58097;48.364;-1.224;2023-04-25T13:29:32;5.50;;;3.10;;
70543;SDS011;58097;48.364;-1.224;2023-04-25T13:31:59;4.25;;;2.83;;
70543;SDS011;58097;48.364;-1.224;2023-04-25T13:34:25;5.43;;;2.50;;
70543;SDS011;58097;48.364;-1.224;2023-04-25T13:36:51;5.97;;;3.03;;
70543;SDS011;58097;48.364;-1.224;2023-04-25T13:39:16;6.53;;;3.22;;
70543;SDS011;58097;48.364;-1.224;2023-04-25T13:41:41;4.78;;;2.45;;
70543;SDS011;58097;48.364;-1.224;2023-04-25T13:44:07;5.75;;;2.80;;
70543;SDS011;58097;48.364;-1.224;2023-04-25T13:46:32;3.90;;;3.08;;
70543;SDS011;58097;48.364;-1.224;2023-04-25T13:48:57;5.10;;;3.10;;
70543;SDS011;58097;48.364;-1.224;2023-04-25T13:51:23;4.97;;;3.00;;
70543;SDS011;58097;48.364;-1.224;2023-04-25T13:53:48;6.88;;;2.75;;
70543;SDS011;58097;48.364;-1.224;2023-04-25T13:56:13;6.03;;;2.90;;
70543;SDS011;58097;48.364;-1.224;2023-04-25T13:58:39;6.22;;;3.00;;
70543;SDS011;58097;48.364;-1.224;2023-04-25T14:01:05;4.88;;;3.03;;
70543;SDS011;58097;48.364;-1.224;2023-04-25T14:03:30;6.20;;;3.38;;
70543;SDS011;58097;48.364;-1.224;2023-04-25T14:05:56;5.72;;;2.92;;
70543;SDS011;58097;48.364;-1.224;2023-04-25T14:08:21;8.52;;;3.13;;
70543;SDS011;58097;48.364;-1.224;2023-04-25T14:10:46;6.13;;;3.20;;
70543;SDS011;58097;48.364;-1.224;2023-04-25T14:13:12;4.32;;;2.63;;
70543;SDS011;58097;48.364;-1.224;2023-04-25T14:15:37;7.75;;;3.17;;
70543;SDS011;58097;48.364;-1.224;2023-04-25T14:18:02;6.32;;;2.85;;
70543;SDS011;58097;48.364;-1.224;2023-04-25T14:20:28;3.78;;;2.88;;
70543;SDS011;58097;48.364;-1.224;2023-04-25T14:22:54;4.75;;;2.75;;
70543;SDS011;58097;48.364;-1.224;2023-04-25T14:25:21;5.45;;;2.88;;
70543;SDS011;58097;48.364;-1.224;2023-04-25T14:27:46;7.53;;;2.63;;
70543;SDS011;58097;48.364;-1.224;2023-04-25T14:30:15;8.35;;;3.22;;
70543;SDS011;58097;48.364;-1.224;2023-04-25T14:32:41;5.72;;;2.85;;
70543;SDS011;58097;48.364;-1.224;2023-04-25T14:35:06;3.67;;;3.05;;
70543;SDS011;58097;48.364;-1.224;2023-04-25T14:37:32;5.45;;;2.72;;
70543;SDS011;58097;48.364;-1.224;2023-04-25T14:39:58;4.35;;;2.78;;
70543;SDS011;58097;48.364;-1.224;2023-04-25T14:42:23;3.17;;;2.78;;